createdAt,value
2022-11-08T00:00:56.442Z,25.95
2022-11-08T00:03:25.608Z,27.62
2022-11-08T00:06:13.949Z,27.42
2022-11-08T00:09:02.557Z,28.10
2022-11-08T00:11:50.041Z,27.37
2022-11-08T00:14:19.546Z,27.52
2022-11-08T00:16:48.671Z,26.90
2022-11-08T00:19:19.473Z,27.52
2022-11-08T00:21:49.374Z,27.65
2022-11-08T00:24:18.446Z,26.68
2022-11-08T00:26:48.461Z,29.25
2022-11-08T00:29:17.787Z,29.40
2022-11-08T00:31:46.707Z,27.87
2022-11-08T00:34:17.173Z,25.02
2022-11-08T00:36:46.579Z,25.15
2022-11-08T00:39:15.233Z,27.60
2022-11-08T00:41:44.237Z,26.23
2022-11-08T00:44:13.810Z,24.85
2022-11-08T00:46:44.662Z,29.15
2022-11-08T00:49:13.613Z,24.87
2022-11-08T00:51:44.178Z,27.37
2022-11-08T00:54:16.219Z,29.07
2022-11-08T00:56:45.661Z,30.50
2022-11-08T00:59:16.037Z,26.12
2022-11-08T01:01:46.487Z,26.15
2022-11-08T01:04:16.604Z,27.95
2022-11-08T01:06:47.471Z,25.40
2022-11-08T01:09:16.238Z,26.05
2022-11-08T01:11:47.474Z,27.67
2022-11-08T01:14:16.746Z,27.20
2022-11-08T01:16:47.135Z,24.87
2022-11-08T01:19:16.653Z,25.75
2022-11-08T01:21:47.151Z,26.42
2022-11-08T01:24:15.858Z,25.95
2022-11-08T01:26:46.393Z,25.10
2022-11-08T01:29:15.507Z,26.87
2022-11-08T01:31:44.419Z,24.50
2022-11-08T01:34:13.491Z,22.80
2022-11-08T01:36:43.609Z,26.05
2022-11-08T01:39:13.514Z,23.62
2022-11-08T01:41:43.962Z,26.70
2022-11-08T01:44:17.323Z,25.23
2022-11-08T01:46:47.892Z,26.15
2022-11-08T01:49:34.091Z,24.25
2022-11-08T01:52:19.656Z,23.05
2022-11-08T01:55:06.374Z,27.82
2022-11-08T01:57:49.688Z,24.92
2022-11-08T02:00:18.355Z,25.35
2022-11-08T02:02:53.934Z,23.80
2022-11-08T02:05:27.025Z,24.90
2022-11-08T02:08:28.671Z,22.45
2022-11-08T02:10:59.359Z,24.92
2022-11-08T02:13:29.926Z,22.75
2022-11-08T02:15:58.683Z,23.62
2022-11-08T02:18:31.018Z,23.22
2022-11-08T02:21:24.575Z,26.73
2022-11-08T02:23:59.818Z,25.80
2022-11-08T02:26:31.988Z,22.02
2022-11-08T02:29:22.185Z,24.30
2022-11-08T02:31:51.313Z,23.87
2022-11-08T02:34:21.580Z,22.45
2022-11-08T02:36:52.114Z,20.77
2022-11-08T02:39:21.860Z,21.30
2022-11-08T02:41:51.368Z,22.00
2022-11-08T02:44:20.458Z,23.77
2022-11-08T02:46:49.636Z,25.85
2022-11-08T02:49:18.402Z,23.45
2022-11-08T02:51:47.201Z,23.65
2022-11-08T02:54:16.519Z,22.45
2022-11-08T02:56:46.492Z,21.20
2022-11-08T02:59:15.642Z,23.67
2022-11-08T03:01:45.534Z,23.98
2022-11-08T03:04:14.952Z,21.90
2022-11-08T03:06:45.596Z,23.57
2022-11-08T03:09:14.782Z,22.25
2022-11-08T03:11:44.168Z,23.98
2022-11-08T03:14:13.452Z,22.13
2022-11-08T03:16:43.385Z,20.25
2022-11-08T03:19:13.160Z,24.65
2022-11-08T03:21:43.352Z,22.13
2022-11-08T03:24:12.531Z,24.77
2022-11-08T03:26:41.300Z,20.95
2022-11-08T03:29:11.063Z,22.35
2022-11-08T03:31:40.750Z,26.27
2022-11-08T03:34:10.871Z,25.88
2022-11-08T03:36:39.728Z,20.43
2022-11-08T03:39:08.684Z,23.18
2022-11-08T03:41:37.714Z,23.65
2022-11-08T03:44:06.763Z,23.83
2022-11-08T03:46:37.470Z,23.70
2022-11-08T03:49:06.736Z,21.37
2022-11-08T03:51:35.990Z,22.00
2022-11-08T03:54:05.290Z,22.15
2022-11-08T03:56:35.889Z,21.70
2022-11-08T03:59:04.810Z,23.20
2022-11-08T04:01:33.856Z,22.07
2022-11-08T04:04:03.879Z,22.82
2022-11-08T04:06:32.977Z,21.33
2022-11-08T04:09:02.504Z,24.40
2022-11-08T04:11:49.952Z,21.42
2022-11-08T04:14:38.927Z,24.00
2022-11-08T04:17:09.487Z,22.55
2022-11-08T04:19:57.283Z,21.23
2022-11-08T04:22:26.295Z,23.67
2022-11-08T04:24:55.872Z,21.80
2022-11-08T04:27:24.409Z,19.37
2022-11-08T04:29:54.746Z,28.60
2022-11-08T04:32:23.563Z,25.15
2022-11-08T04:34:52.676Z,21.85
2022-11-08T04:37:23.633Z,23.60
2022-11-08T04:39:53.024Z,24.15
2022-11-08T04:42:22.303Z,19.77
2022-11-08T04:44:52.017Z,20.97
2022-11-08T04:47:21.000Z,20.55
2022-11-08T04:49:50.074Z,19.27
2022-11-08T04:52:18.956Z,22.17
2022-11-08T04:54:48.538Z,22.93
2022-11-08T04:57:18.649Z,20.72
2022-11-08T04:59:48.172Z,23.00
2022-11-08T05:02:17.186Z,22.87
2022-11-08T05:04:46.451Z,22.55
2022-11-08T05:07:15.655Z,22.40
2022-11-08T05:09:46.751Z,22.67
2022-11-08T05:12:18.090Z,22.67
2022-11-08T05:14:49.519Z,23.40
2022-11-08T05:17:19.595Z,27.55
2022-11-08T05:20:08.205Z,26.45
2022-11-08T05:22:56.428Z,22.07
2022-11-08T05:25:26.664Z,23.80
2022-11-08T05:27:56.449Z,22.65
2022-11-08T05:30:25.723Z,24.72
2022-11-08T05:32:56.787Z,28.83
2022-11-08T05:35:26.648Z,29.20
2022-11-08T05:37:56.319Z,28.62
2022-11-08T05:40:29.424Z,21.93
2022-11-08T05:42:57.397Z,23.05
2022-11-08T05:45:26.377Z,25.17
2022-11-08T05:47:59.223Z,23.80
2022-11-08T05:50:28.992Z,26.80
2022-11-08T05:52:59.939Z,27.42
2022-11-08T05:55:30.255Z,26.55
2022-11-08T05:57:59.453Z,23.65
2022-11-08T06:00:29.653Z,26.40
2022-11-08T06:02:58.890Z,26.23
2022-11-08T06:05:28.729Z,26.52
2022-11-08T06:07:57.487Z,29.18
2022-11-08T06:10:27.023Z,22.20
2022-11-08T06:13:01.611Z,26.45
2022-11-08T06:15:31.215Z,24.40
2022-11-08T06:18:04.540Z,30.88
2022-11-08T06:20:33.479Z,26.48
2022-11-08T06:23:02.727Z,28.00
2022-11-08T06:25:31.928Z,27.52
2022-11-08T06:28:01.813Z,27.32
2022-11-08T06:30:30.938Z,26.23
2022-11-08T06:33:00.324Z,24.90
2022-11-08T06:35:30.212Z,25.02
2022-11-08T06:38:01.364Z,26.80
2022-11-08T06:40:33.140Z,24.75
2022-11-08T06:43:02.633Z,25.05
2022-11-08T06:45:33.146Z,25.02
2022-11-08T06:48:03.979Z,23.40
2022-11-08T06:50:34.070Z,24.00
2022-11-08T06:53:07.070Z,28.12
2022-11-08T06:55:38.422Z,27.17
2022-11-08T06:58:07.252Z,24.72
2022-11-08T07:00:36.971Z,21.35
2022-11-08T07:03:06.914Z,26.12
2022-11-08T07:05:37.383Z,22.27
2022-11-08T07:08:06.714Z,26.73
2022-11-08T07:10:36.633Z,24.95
2022-11-08T07:13:10.292Z,26.33
2022-11-08T07:15:41.463Z,21.85
2022-11-08T07:18:13.124Z,27.30
2022-11-08T07:20:43.349Z,26.65
2022-11-08T07:23:13.147Z,24.40
2022-11-08T07:25:46.620Z,29.95
2022-11-08T07:28:18.301Z,31.50
2022-11-08T07:30:48.422Z,25.60
2022-11-08T07:33:18.928Z,29.07
2022-11-08T07:35:49.919Z,24.23
2022-11-08T07:38:19.985Z,26.25
2022-11-08T07:40:51.715Z,26.75
2022-11-08T07:43:21.264Z,27.50
2022-11-08T07:45:56.505Z,30.55
2022-11-08T07:48:25.630Z,28.17
2022-11-08T07:50:55.081Z,31.48
2022-11-08T07:53:24.584Z,31.07
2022-11-08T07:55:55.010Z,32.23
2022-11-08T07:58:24.513Z,33.73
2022-11-08T08:00:53.965Z,31.68
2022-11-08T08:03:23.658Z,32.00
2022-11-08T08:05:59.483Z,32.48
2022-11-08T08:08:26.121Z,35.63
2022-11-08T08:11:02.527Z,32.42
2022-11-08T08:13:32.519Z,36.17
2022-11-08T08:16:02.527Z,32.13
2022-11-08T08:18:33.065Z,33.63
2022-11-08T08:21:02.248Z,32.63
2022-11-08T08:23:33.061Z,32.67
2022-11-08T08:26:03.162Z,34.43
2022-11-08T08:28:31.856Z,35.35
2022-11-08T08:31:01.426Z,36.28
2022-11-08T08:33:30.811Z,37.73
2022-11-08T08:36:01.621Z,32.73
2022-11-08T08:38:32.493Z,34.43
2022-11-08T08:41:01.699Z,41.75
2022-11-08T08:43:34.118Z,39.20
2022-11-08T08:46:05.260Z,43.40
2022-11-08T08:48:35.715Z,39.55
2022-11-08T08:51:04.915Z,40.50
2022-11-08T08:53:34.168Z,42.70
2022-11-08T08:56:07.299Z,46.53
2022-11-08T08:58:40.582Z,55.90
2022-11-08T09:03:45.158Z,40.80
2022-11-08T09:06:14.322Z,36.73
2022-11-08T09:08:44.552Z,38.65
2022-11-08T09:11:13.174Z,39.63
2022-11-08T09:13:42.332Z,38.65
2022-11-08T09:16:13.220Z,36.83
2022-11-08T09:18:41.854Z,38.75
2022-11-08T09:21:12.309Z,42.93
2022-11-08T09:23:42.147Z,41.58
2022-11-08T09:26:12.199Z,40.15
2022-11-08T09:28:41.025Z,38.58
2022-11-08T09:31:11.552Z,39.85
2022-11-08T09:33:41.698Z,41.40
2022-11-08T09:36:13.421Z,44.55
2022-11-08T09:38:42.590Z,45.85
2022-11-08T09:41:31.083Z,41.83
2022-11-08T09:44:23.014Z,41.15
2022-11-08T09:47:15.149Z,45.30
2022-11-08T09:50:24.680Z,43.83
2022-11-08T09:53:19.349Z,38.50
2022-11-08T09:56:15.422Z,44.13
2022-11-08T09:58:49.563Z,45.23
2022-11-08T10:01:19.558Z,40.95
2022-11-08T10:03:51.740Z,43.35
2022-11-08T10:07:03.209Z,50.00
2022-11-08T10:09:56.474Z,49.15
2022-11-08T10:12:43.852Z,46.75
2022-11-08T10:15:22.160Z,47.17
2022-11-08T10:18:20.487Z,55.92
2022-11-08T10:21:04.679Z,44.08
2022-11-08T10:23:44.500Z,62.10
2022-11-08T10:26:25.732Z,56.50
2022-11-08T10:29:08.521Z,48.35
2022-11-08T10:31:38.288Z,49.03
2022-11-08T10:34:15.412Z,56.08
2022-11-08T10:36:49.144Z,50.28
2022-11-08T10:39:27.808Z,57.75
2022-11-08T10:42:04.339Z,45.20
2022-11-08T10:44:34.908Z,46.02
2022-11-08T10:47:06.484Z,38.53
2022-11-08T10:49:38.948Z,54.18
2022-11-08T10:52:21.671Z,47.95
2022-11-08T10:55:01.179Z,44.33
2022-11-08T10:57:47.941Z,47.10
2022-11-08T11:00:29.691Z,44.77
2022-11-08T11:03:08.371Z,62.43
2022-11-08T11:05:44.408Z,64.07
2022-11-08T11:08:15.396Z,48.27
2022-11-08T11:10:46.618Z,70.00
2022-11-08T11:16:04.138Z,91.97
2022-11-08T11:18:48.159Z,74.00
2022-11-08T11:21:22.712Z,61.85
2022-11-08T11:24:00.190Z,52.48
2022-11-08T11:26:34.148Z,50.48
2022-11-08T11:29:17.157Z,56.55
2022-11-08T11:31:49.298Z,52.62
2022-11-08T11:34:23.373Z,55.05
2022-11-08T11:37:13.393Z,60.35
2022-11-08T11:40:12.273Z,55.38
2022-11-08T11:43:12.382Z,56.40
2022-11-08T11:46:00.503Z,51.77
2022-11-08T11:48:32.153Z,55.60
2022-11-08T11:51:03.567Z,51.98
2022-11-08T11:53:40.243Z,54.58
2022-11-08T11:59:46.407Z,49.67
2022-11-08T12:02:51.328Z,47.88
2022-11-08T12:06:05.803Z,41.55
2022-11-08T12:09:02.288Z,43.30
2022-11-08T12:11:39.202Z,50.33
2022-11-08T12:14:45.051Z,48.90
2022-11-08T12:17:53.110Z,43.60
2022-11-08T12:20:55.402Z,40.75
2022-11-08T12:23:53.929Z,41.98
2022-11-08T12:26:58.445Z,43.25
2022-11-08T12:29:47.700Z,43.30
2022-11-08T12:32:24.867Z,45.20
2022-11-08T12:35:00.210Z,44.35
2022-11-08T12:37:55.629Z,42.30
2022-11-08T12:40:46.729Z,44.08
2022-11-08T12:43:38.773Z,41.20
2022-11-08T12:46:18.332Z,42.95
2022-11-08T12:49:10.192Z,44.67
2022-11-08T12:51:52.972Z,45.92
2022-11-08T12:54:41.576Z,48.20
2022-11-08T12:57:13.345Z,48.00
2022-11-08T13:00:09.917Z,45.23
2022-11-08T13:02:42.327Z,43.60
2022-11-08T13:05:30.790Z,43.98
2022-11-08T13:08:16.814Z,43.25
2022-11-08T13:10:52.062Z,44.98
2022-11-08T13:13:52.742Z,48.78
2022-11-08T13:16:28.450Z,43.58
2022-11-08T13:18:58.570Z,54.83
2022-11-08T13:21:44.855Z,43.33
2022-11-08T13:31:02.651Z,40.50
2022-11-08T13:33:32.389Z,44.00
2022-11-08T13:36:30.059Z,45.03
2022-11-08T13:39:30.560Z,46.25
2022-11-08T13:42:26.722Z,43.42
2022-11-08T13:55:59.704Z,56.83
2022-11-08T13:58:35.875Z,58.48
2022-11-08T14:01:09.360Z,49.48
2022-11-08T14:03:55.347Z,45.70
2022-11-08T14:06:56.040Z,50.55
2022-11-08T14:09:57.044Z,51.65
2022-11-08T14:12:57.974Z,50.73
2022-11-08T14:15:37.964Z,54.33
2022-11-08T14:18:30.835Z,53.28
2022-11-08T14:21:08.537Z,50.05
2022-11-08T14:23:48.447Z,46.88
2022-11-08T14:26:23.106Z,46.48
2022-11-08T14:28:54.410Z,50.08
2022-11-08T14:31:33.125Z,51.55
2022-11-08T14:34:02.707Z,41.53
2022-11-08T14:36:32.873Z,51.45
2022-11-08T14:39:17.783Z,42.43
2022-11-08T14:41:48.833Z,46.60
2022-11-08T14:44:19.858Z,45.75
2022-11-08T14:46:49.397Z,47.67
2022-11-08T14:49:36.314Z,42.73
2022-11-08T14:54:46.717Z,49.67
2022-11-08T14:57:38.244Z,49.42
2022-11-08T15:00:20.848Z,54.48
2022-11-08T15:03:06.984Z,47.00
2022-11-08T15:05:47.455Z,47.73
2022-11-08T15:08:34.613Z,48.78
2022-11-08T15:11:07.944Z,44.42
2022-11-08T15:13:48.540Z,46.95
2022-11-08T15:16:18.616Z,50.90
2022-11-08T15:18:47.960Z,54.40
2022-11-08T15:21:58.160Z,51.68
2022-11-08T15:24:46.958Z,52.60
2022-11-08T15:27:25.337Z,55.25
2022-11-08T15:30:13.655Z,53.80
2022-11-08T15:32:45.708Z,59.33
2022-11-08T15:35:34.198Z,49.23
2022-11-08T15:38:09.576Z,57.25
2022-11-08T15:40:45.048Z,60.10
2022-11-08T15:43:35.094Z,58.40
2022-11-08T15:46:05.878Z,64.10
2022-11-08T15:48:41.809Z,59.35
2022-11-08T15:51:17.043Z,60.85
2022-11-08T15:53:48.850Z,66.50
2022-11-08T15:56:17.744Z,65.10
2022-11-08T15:58:47.083Z,60.38
2022-11-08T16:01:20.601Z,58.87
2022-11-08T16:03:49.943Z,67.42
2022-11-08T16:06:20.336Z,64.40
2022-11-08T16:08:49.334Z,63.20
2022-11-08T16:11:34.154Z,60.28
2022-11-08T16:14:19.860Z,70.05
2022-11-08T16:16:49.900Z,64.55
2022-11-08T16:19:23.350Z,60.00
2022-11-08T16:21:53.287Z,66.22
2022-11-08T16:24:35.020Z,69.20
2022-11-08T16:27:11.831Z,69.90
2022-11-08T16:29:42.717Z,64.50
2022-11-08T16:32:26.268Z,67.08
2022-11-08T16:35:13.652Z,68.57
2022-11-08T16:37:46.095Z,66.65
2022-11-08T16:40:36.177Z,67.82
2022-11-08T16:43:16.398Z,65.37
2022-11-08T16:48:18.622Z,67.85
2022-11-08T16:50:47.973Z,72.78
2022-11-08T16:53:19.341Z,60.03
2022-11-08T16:55:48.102Z,61.73
2022-11-08T16:58:17.179Z,73.83
2022-11-08T17:00:46.264Z,64.45
2022-11-08T17:03:21.255Z,68.30
2022-11-08T17:05:50.795Z,64.50
2022-11-08T17:08:20.812Z,68.47
2022-11-08T17:10:50.142Z,68.65
2022-11-08T17:13:21.265Z,67.45
2022-11-08T17:15:51.098Z,72.22
2022-11-08T17:18:21.556Z,67.87
2022-11-08T17:20:53.608Z,73.60
2022-11-08T17:23:23.464Z,84.70
2022-11-08T17:25:52.584Z,89.85
2022-11-08T17:28:21.669Z,92.67
2022-11-08T17:30:51.285Z,86.80
2022-11-08T17:33:20.747Z,78.57
2022-11-08T17:35:50.380Z,92.92
2022-11-08T17:38:20.491Z,92.10
2022-11-08T17:40:50.292Z,86.28
2022-11-08T17:43:20.786Z,86.50
2022-11-08T17:45:51.658Z,85.85
2022-11-08T17:48:20.273Z,83.60
2022-11-08T17:50:48.874Z,79.67
2022-11-08T17:53:18.025Z,89.92
2022-11-08T17:56:01.065Z,85.00
2022-11-08T17:58:32.499Z,87.10
2022-11-08T18:01:04.893Z,82.17
2022-11-08T18:03:35.412Z,80.05
2022-11-08T18:06:09.607Z,89.85
2022-11-08T18:08:38.149Z,91.57
2022-11-08T18:11:08.454Z,88.52
2022-11-08T18:13:38.054Z,90.32
2022-11-08T18:16:14.534Z,87.88
2022-11-08T18:18:46.833Z,93.47
2022-11-08T18:21:17.292Z,102.87
2022-11-08T18:23:47.588Z,101.42
2022-11-08T18:26:17.156Z,102.35
2022-11-08T18:28:45.744Z,97.78
2022-11-08T18:31:17.136Z,92.45
2022-11-08T18:33:47.318Z,97.05
2022-11-08T18:36:21.496Z,91.60
2022-11-08T18:38:52.073Z,92.37
2022-11-08T18:41:24.954Z,85.50
2022-11-08T18:43:54.142Z,86.57
2022-11-08T18:46:24.889Z,90.28
2022-11-08T18:48:54.062Z,100.45
2022-11-08T18:51:23.901Z,94.77
2022-11-08T18:53:53.061Z,90.42
2022-11-08T18:56:22.793Z,87.50
2022-11-08T18:58:51.517Z,84.03
2022-11-08T19:01:20.478Z,92.50
2022-11-08T19:03:49.397Z,98.20
2022-11-08T19:06:20.506Z,98.78
2022-11-08T19:08:49.228Z,99.32
2022-11-08T19:11:19.905Z,91.60
2022-11-08T19:13:49.953Z,101.38
2022-11-08T19:16:19.864Z,102.00
2022-11-08T19:18:51.596Z,109.80
2022-11-08T19:21:23.859Z,112.45
2022-11-08T19:23:55.111Z,112.22
2022-11-08T19:26:25.219Z,113.72
2022-11-08T19:28:54.813Z,98.97
2022-11-08T19:31:24.749Z,105.75
2022-11-08T19:33:53.960Z,113.28
2022-11-08T19:36:25.048Z,111.68
2022-11-08T19:38:55.132Z,108.55
2022-11-08T19:41:26.867Z,96.87
2022-11-08T19:43:56.678Z,104.05
2022-11-08T19:46:29.378Z,101.90
2022-11-08T19:49:00.410Z,112.55
2022-11-08T19:51:33.031Z,110.40
2022-11-08T19:54:07.740Z,109.95
2022-11-08T19:57:03.680Z,115.17
2022-11-08T19:59:08.720Z,110.10
2022-11-08T20:01:39.596Z,102.58
2022-11-08T20:04:10.617Z,107.10
2022-11-08T20:06:40.181Z,116.47
2022-11-08T20:09:09.648Z,116.90
2022-11-08T20:11:43.019Z,102.07
2022-11-08T20:14:13.132Z,109.65
2022-11-08T20:16:43.214Z,110.95
2022-11-08T20:19:16.248Z,108.55
2022-11-08T20:21:45.907Z,109.27
2022-11-08T20:24:15.054Z,95.65
2022-11-08T20:26:45.524Z,96.97
2022-11-08T20:29:14.516Z,101.25
2022-11-08T20:31:44.921Z,98.60
2022-11-08T20:34:13.871Z,105.37
2022-11-08T20:36:45.124Z,98.27
2022-11-08T20:39:15.307Z,95.97
2022-11-08T20:41:45.071Z,101.65
2022-11-08T20:44:14.916Z,103.00
2022-11-08T20:46:44.177Z,104.12
2022-11-08T20:49:13.491Z,104.97
2022-11-08T20:51:42.373Z,103.32
2022-11-08T20:54:11.798Z,102.50
2022-11-08T20:56:42.521Z,103.45
2022-11-08T20:59:12.137Z,102.35
2022-11-08T21:01:42.235Z,100.22
2022-11-08T21:04:11.057Z,101.45
2022-11-08T21:06:41.305Z,106.10
2022-11-08T21:09:34.437Z,113.70
2022-11-08T21:11:43.911Z,116.00
2022-11-08T21:14:12.790Z,113.30
2022-11-08T21:17:14.735Z,115.92
2022-11-08T21:19:16.966Z,116.12
2022-11-08T21:21:48.448Z,101.60
2022-11-08T21:24:19.072Z,103.92
2022-11-08T21:26:48.400Z,110.83
2022-11-08T21:29:17.314Z,103.75
2022-11-08T21:31:47.274Z,98.35
2022-11-08T21:34:16.897Z,91.80
2022-11-08T21:36:45.629Z,90.55
2022-11-08T21:39:14.253Z,87.12
2022-11-08T21:41:43.581Z,96.80
2022-11-08T21:44:12.060Z,88.87
2022-11-08T21:46:40.681Z,94.55
2022-11-08T21:49:12.099Z,92.92
2022-11-08T21:51:40.765Z,95.60
2022-11-08T21:54:10.716Z,127.62
2022-11-08T21:56:39.524Z,136.18
2022-11-08T21:59:10.887Z,132.75
2022-11-08T22:01:39.679Z,129.30
2022-11-08T22:04:08.659Z,133.15
2022-11-08T22:06:41.436Z,127.50
2022-11-08T22:09:10.277Z,116.75
2022-11-08T22:11:39.333Z,107.80
2022-11-08T22:14:09.867Z,111.80
2022-11-08T22:16:40.555Z,96.50
2022-11-08T22:19:11.602Z,86.20
2022-11-08T22:21:42.921Z,77.45
2022-11-08T22:24:17.495Z,88.70
2022-11-08T22:26:47.810Z,84.83
2022-11-08T22:29:18.314Z,85.17
2022-11-08T22:31:47.601Z,76.28
2022-11-08T22:34:17.783Z,76.70
2022-11-08T22:36:47.658Z,75.05
2022-11-08T22:39:20.411Z,76.10
2022-11-08T22:41:51.632Z,81.72
2022-11-08T22:44:22.204Z,70.25
2022-11-08T22:46:50.958Z,65.42
2022-11-08T22:49:19.660Z,62.00
2022-11-08T22:51:48.632Z,62.60
2022-11-08T22:54:17.182Z,63.83
2022-11-08T22:56:45.972Z,64.20
2022-11-08T22:59:14.694Z,63.00
2022-11-08T23:01:43.251Z,66.70
2022-11-08T23:04:12.042Z,66.37
2022-11-08T23:06:42.401Z,67.78
2022-11-08T23:09:11.206Z,73.65
2022-11-08T23:11:58.201Z,72.97
2022-11-08T23:14:45.157Z,51.95
2022-11-08T23:17:14.183Z,60.78
2022-11-08T23:20:01.392Z,55.80
2022-11-08T23:22:51.821Z,53.50
2022-11-08T23:25:20.803Z,60.23
2022-11-08T23:28:09.652Z,54.40
2022-11-08T23:30:58.774Z,44.55
2022-11-08T23:36:11.126Z,50.65
2022-11-08T23:38:41.274Z,48.63
2022-11-08T23:41:29.044Z,45.83
2022-11-08T23:44:18.346Z,41.25
2022-11-08T23:46:47.312Z,40.80
2022-11-08T23:49:16.143Z,51.55
2022-11-08T23:51:45.240Z,47.43
2022-11-08T23:54:15.346Z,44.42
2022-11-08T23:56:44.695Z,47.48
2022-11-08T23:59:15.670Z,49.53
